Time;durP1;ratioP1;P1;durP2;ratioP2;P2;SDS_P1;SDS_P2;PMS_P1;PMS_P2;Temp;Humidity;BMP_temperature;BMP_pressure;BME280_temperature;BME280_humidity;BME280_pressure;Samples;Min_cycle;Max_cycle;Signal;HPM_P1;HPM_P2
2021/09/24 00:01:01;;;;;;;1.80;0.50;;;;;;;14.67;74.43;99474.81;113270;1197;22409;-60
2021/09/24 00:03:33;;;;;;;4.80;0.60;;;;;;;14.61;74.57;99477.79;113167;1190;26078;-60
2021/09/24 00:06:08;;;;;;;2.20;0.50;;;;;;;14.55;74.85;99479.67;113178;1197;23129;-60
2021/09/24 00:08:39;;;;;;;4.40;0.60;;;;;;;14.51;74.85;99485.52;113190;1198;25172;-61
2021/09/24 00:11:10;;;;;;;2.70;0.50;;;;;;;14.47;75.18;99473.00;113055;1190;24087;-60
2021/09/24 00:13:41;;;;;;;6.20;0.70;;;;;;;14.43;75.14;99481.77;113111;1198;22538;-62
2021/09/24 00:16:13;;;;;;;6.40;0.60;;;;;;;14.40;75.28;99481.80;112957;1197;24050;-61
2021/09/24 00:18:44;;;;;;;2.90;0.50;;;;;;;14.36;75.39;99488.06;113023;1197;25149;-58
2021/09/24 00:21:16;;;;;;;4.90;0.70;;;;;;;14.31;75.48;99493.77;113061;1196;22413;-59
2021/09/24 00:23:48;;;;;;;7.10;0.50;;;;;;;14.25;75.53;99490.11;113126;1196;23131;-60
2021/09/24 00:26:19;;;;;;;5.10;0.50;;;;;;;14.21;75.65;99481.21;113171;1197;24087;-60
2021/09/24 00:28:50;;;;;;;3.30;0.40;;;;;;;14.18;75.63;99492.05;113312;1190;25136;-60
2021/09/24 00:31:21;;;;;;;4.80;0.60;;;;;;;14.15;75.62;99475.93;113117;1197;24060;-59
2021/09/24 00:33:52;;;;;;;3.00;0.50;;;;;;;14.13;75.54;99476.83;113115;1190;25321;-60
2021/09/24 00:36:25;;;;;;;2.40;0.40;;;;;;;14.10;75.87;99476.50;113125;1190;22428;-60
2021/09/24 00:38:56;;;;;;;6.40;0.50;;;;;;;14.06;75.58;99477.90;113144;1190;22412;-60
2021/09/24 00:41:28;;;;;;;4.00;0.40;;;;;;;14.03;75.52;99472.51;113255;1197;24115;-60
2021/09/24 00:44:02;;;;;;;5.30;0.40;;;;;;;14.02;75.42;99472.48;113286;1190;25210;-60
2021/09/24 00:46:33;;;;;;;8.20;2.30;;;;;;;14.01;75.55;99476.98;113404;1198;22425;-61
2021/09/24 00:49:04;;;;;;;5.80;0.60;;;;;;;13.99;75.82;99479.98;113112;1198;22440;-59
2021/09/24 00:51:35;;;;;;;7.30;1.30;;;;;;;13.98;75.86;99472.39;113079;1198;22738;-59
2021/09/24 00:54:07;;;;;;;2.60;0.40;;;;;;;13.96;76.01;99474.09;113084;1196;24313;-60
2021/09/24 00:56:38;;;;;;;7.00;0.40;;;;;;;13.93;76.50;99474.73;113144;1198;22838;-60
2021/09/24 00:59:09;;;;;;;3.50;0.40;;;;;;;13.89;76.58;99484.20;113066;1198;22436;-61
2021/09/24 01:01:39;;;;;;;3.70;0.40;;;;;;;13.84;76.61;99488.26;113000;1193;22478;-60
2021/09/24 01:04:10;;;;;;;1.50;0.30;;;;;;;13.80;76.87;99483.94;113067;1197;25203;-60
2021/09/24 01:06:42;;;;;;;7.10;0.60;;;;;;;13.78;76.93;99484.61;113186;1198;22430;-60
2021/09/24 01:09:14;;;;;;;2.30;0.40;;;;;;;13.75;77.13;99485.15;113206;1190;25286;-61
2021/09/24 01:11:45;;;;;;;4.00;0.60;;;;;;;13.73;77.25;99482.50;113193;1197;25693;-60
2021/09/24 01:14:17;;;;;;;3.90;0.50;;;;;;;13.71;76.94;99486.80;113084;1196;22437;-60
2021/09/24 01:16:47;;;;;;;2.40;0.40;;;;;;;13.71;76.83;99489.36;113051;1196;24087;-60
2021/09/24 01:19:18;;;;;;;3.90;0.50;;;;;;;13.71;76.74;99496.30;113096;1196;24118;-60
2021/09/24 01:21:50;;;;;;;5.10;0.50;;;;;;;13.70;76.55;99492.87;113077;1190;22684;-60
2021/09/24 01:24:22;;;;;;;3.30;0.50;;;;;;;13.68;76.41;99488.75;113150;1198;25115;-60
2021/09/24 01:26:55;;;;;;;6.60;1.00;;;;;;;13.66;76.35;99493.52;113080;1198;22481;-60
2021/09/24 01:29:30;;;;;;;5.60;0.70;;;;;;;13.64;76.36;99494.48;113052;1197;22436;-60
2021/09/24 01:32:02;;;;;;;5.40;0.50;;;;;;;13.63;76.37;99490.56;112993;1196;22622;-60
2021/09/24 01:34:33;;;;;;;6.60;0.70;;;;;;;13.61;76.30;99491.85;113187;1198;22438;-60
2021/09/24 01:37:05;;;;;;;6.70;0.80;;;;;;;13.60;76.26;99490.69;113211;1197;22437;-64
2021/09/24 01:39:36;;;;;;;8.30;0.60;;;;;;;13.57;76.28;99501.26;113160;1197;22493;-59
2021/09/24 01:42:07;;;;;;;5.70;0.50;;;;;;;13.55;76.32;99498.77;113096;1198;23761;-59
2021/09/24 01:44:38;;;;;;;6.00;0.80;;;;;;;13.53;76.29;99509.79;113180;1197;24094;-60
2021/09/24 01:47:09;;;;;;;6.80;0.80;;;;;;;13.51;76.29;99515.86;113126;1190;22427;-61
2021/09/24 01:49:41;;;;;;;5.50;0.80;;;;;;;13.51;76.39;99517.05;113250;1196;22420;-61
2021/09/24 01:52:13;;;;;;;10.10;1.20;;;;;;;13.51;76.25;99517.39;113393;1197;22434;-62
2021/09/24 01:54:45;;;;;;;6.10;1.00;;;;;;;13.52;76.24;99527.29;113243;1197;25077;-62
2021/09/24 01:57:16;;;;;;;12.20;1.00;;;;;;;13.52;76.14;99527.89;113246;1196;22435;-60
2021/09/24 01:59:48;;;;;;;4.70;0.80;;;;;;;13.54;76.13;99526.66;113325;1197;25059;-60
2021/09/24 02:02:19;;;;;;;4.20;0.90;;;;;;;13.54;75.95;99522.08;113437;1197;24509;-60
2021/09/24 02:04:50;;;;;;;11.10;0.90;;;;;;;13.55;75.70;99520.23;113360;1198;24087;-60
2021/09/24 02:07:22;;;;;;;5.00;0.80;;;;;;;13.55;75.58;99536.70;113072;1190;22438;-61
2021/09/24 02:09:52;;;;;;;7.80;1.00;;;;;;;13.55;75.31;99532.46;113021;1197;25072;-62
2021/09/24 02:12:23;;;;;;;6.00;0.90;;;;;;;13.55;75.11;99533.33;113164;1196;25067;-61
2021/09/24 02:14:58;;;;;;;7.60;0.90;;;;;;;13.55;75.03;99535.41;113308;1196;22553;-61
2021/09/24 02:17:33;;;;;;;10.80;1.30;;;;;;;13.56;74.70;99540.62;113169;1196;25403;-60
2021/09/24 02:20:05;;;;;;;11.60;1.00;;;;;;;13.56;74.64;99539.09;113338;1190;25123;-61
2021/09/24 02:22:36;;;;;;;6.30;1.00;;;;;;;13.58;74.36;99545.36;113211;1190;22441;-61
2021/09/24 02:25:09;;;;;;;8.80;1.10;;;;;;;13.58;74.25;99554.02;113257;1196;22426;-63
2021/09/24 02:27:40;;;;;;;8.60;0.70;;;;;;;13.58;74.30;99555.86;113178;1196;25127;-61
2021/09/24 02:30:13;;;;;;;7.30;0.70;;;;;;;13.58;74.37;99559.13;113190;1196;25037;-61
2021/09/24 02:32:44;;;;;;;6.80;0.90;;;;;;;13.57;73.93;99565.23;113225;1196;24232;-61
2021/09/24 02:35:16;;;;;;;6.50;0.60;;;;;;;13.57;73.74;99564.58;113168;1196;25116;-60
2021/09/24 02:38:07;;;;;;;10.20;0.80;;;;;;;13.58;73.73;99565.29;113124;1190;25017;-61
2021/09/24 02:40:38;;;;;;;11.90;0.80;;;;;;;13.57;73.63;99568.09;113186;1196;22436;-61
2021/09/24 02:43:10;;;;;;;13.30;0.90;;;;;;;13.57;73.68;99567.79;113220;1196;22430;-61
2021/09/24 02:45:41;;;;;;;8.20;0.80;;;;;;;13.56;73.44;99569.78;113239;1196;25114;-61
2021/09/24 02:48:12;;;;;;;9.10;0.90;;;;;;;13.56;73.30;99580.50;113176;1196;24186;-61
2021/09/24 02:50:45;;;;;;;9.70;0.90;;;;;;;13.55;73.01;99588.41;113159;1196;25293;-62
2021/09/24 02:53:16;;;;;;;9.90;0.80;;;;;;;13.54;73.32;99590.25;113317;1196;22417;-61
2021/09/24 02:55:47;;;;;;;8.20;1.20;;;;;;;13.52;73.56;99596.73;113193;1190;22898;-62
2021/09/24 02:58:19;;;;;;;12.00;1.40;;;;;;;13.48;73.88;99618.35;113240;1196;25570;-60
2021/09/24 03:00:50;;;;;;;6.80;0.80;;;;;;;13.40;73.14;99626.27;113271;1196;25240;-61
2021/09/24 03:03:23;;;;;;;12.30;1.10;;;;;;;13.30;73.34;99631.65;113173;1190;22438;-63
2021/09/24 03:05:58;;;;;;;14.40;1.30;;;;;;;13.21;73.07;99633.09;113230;1196;22437;-63
2021/09/24 03:08:29;;;;;;;11.30;1.90;;;;;;;13.14;73.34;99636.20;113421;1190;25113;-60
2021/09/24 03:10:59;;;;;;;8.80;1.00;;;;;;;13.07;73.55;99639.46;113201;1190;24105;-61
2021/09/24 03:13:30;;;;;;;15.10;1.00;;;;;;;13.01;73.46;99644.09;113133;1196;22505;-60
2021/09/24 03:16:02;;;;;;;14.00;1.20;;;;;;;12.92;73.08;99652.45;113191;1196;24047;-61
2021/09/24 03:18:33;;;;;;;13.00;1.10;;;;;;;12.85;72.37;99662.27;113345;1196;22416;-61
2021/09/24 03:21:04;;;;;;;9.40;1.00;;;;;;;12.79;72.26;99651.21;113218;1196;24084;-61
2021/09/24 03:23:35;;;;;;;12.80;1.00;;;;;;;12.76;72.19;99650.60;113219;1196;26304;-61
2021/09/24 03:26:06;;;;;;;12.40;1.30;;;;;;;12.71;72.19;99648.40;113409;1190;22422;-62
2021/09/24 03:28:38;;;;;;;13.40;1.20;;;;;;;12.66;72.28;99653.95;113456;1190;26288;-61
2021/09/24 03:31:09;;;;;;;12.80;0.90;;;;;;;12.61;71.81;99660.57;113255;1196;22459;-61
2021/09/24 03:33:40;;;;;;;20.50;1.80;;;;;;;12.56;71.76;99660.50;113188;1196;22434;-60
2021/09/24 03:36:11;;;;;;;11.50;1.00;;;;;;;12.50;71.64;99666.96;113275;1190;22410;-61
2021/09/24 03:38:42;;;;;;;13.40;1.10;;;;;;;12.47;71.32;99675.55;113281;1196;26273;-61
2021/09/24 03:41:13;;;;;;;11.70;1.40;;;;;;;12.42;71.43;99681.76;113194;1196;25095;-61
2021/09/24 03:43:46;;;;;;;18.40;1.80;;;;;;;12.39;71.08;99677.83;113388;1196;22430;-63
2021/09/24 03:46:18;;;;;;;13.90;0.80;;;;;;;12.39;71.24;99681.08;113590;1196;22442;-60
2021/09/24 03:48:49;;;;;;;17.80;1.10;;;;;;;12.38;70.94;99690.80;113161;1196;22545;-60
2021/09/24 03:51:20;;;;;;;11.90;1.00;;;;;;;12.37;70.93;99682.20;113305;1190;24104;-61
2021/09/24 03:53:51;;;;;;;18.50;1.20;;;;;;;12.36;71.22;99684.85;113443;1196;22441;-60
2021/09/24 03:56:22;;;;;;;15.00;1.40;;;;;;;12.36;70.96;99694.86;113277;1196;22473;-62
2021/09/24 03:58:53;;;;;;;12.00;1.40;;;;;;;12.36;70.93;99697.30;113233;1196;22565;-61
2021/09/24 04:01:25;;;;;;;18.10;1.90;;;;;;;12.36;71.05;99696.80;113223;1196;24065;-61
2021/09/24 04:03:56;;;;;;;10.90;1.00;;;;;;;12.36;70.86;99704.08;113170;1196;22438;-61
2021/09/24 04:06:27;;;;;;;11.10;1.00;;;;;;;12.36;70.74;99707.48;113462;1196;22546;-61
2021/09/24 04:08:58;;;;;;;12.30;1.10;;;;;;;12.36;70.51;99719.80;113765;1196;22437;-60
2021/09/24 04:11:29;;;;;;;12.70;1.20;;;;;;;12.37;70.23;99716.95;113792;1189;22469;-61
2021/09/24 04:14:02;;;;;;;12.80;1.20;;;;;;;12.42;69.65;99716.20;113223;1190;22444;-61
2021/09/24 04:16:34;;;;;;;14.00;1.10;;;;;;;12.45;69.69;99719.06;113304;1190;22424;-61
2021/09/24 04:19:05;;;;;;;22.70;1.30;;;;;;;12.48;69.60;99717.13;113317;1196;22444;-71
2021/09/24 04:21:36;;;;;;;10.30;1.90;;;;;;;12.49;68.43;99725.75;113158;1196;22435;-60
2021/09/24 04:24:08;;;;;;;12.20;1.10;;;;;;;12.52;68.68;99720.33;113647;1196;22865;-61
2021/09/24 04:26:40;;;;;;;16.70;1.80;;;;;;;12.53;68.59;99721.49;113324;1196;22877;-61
2021/09/24 04:29:10;;;;;;;9.80;1.20;;;;;;;12.53;68.56;99729.48;113213;1190;24157;-61
2021/09/24 04:31:41;;;;;;;17.70;1.40;;;;;;;12.54;68.58;99733.65;113262;1195;22504;-62
2021/09/24 04:34:13;;;;;;;15.30;1.40;;;;;;;12.55;68.57;99740.27;113252;1190;25115;-61
2021/09/24 04:36:44;;;;;;;14.00;1.10;;;;;;;12.54;68.27;99737.23;113412;1196;22536;-62
2021/09/24 04:39:15;;;;;;;14.40;1.20;;;;;;;12.53;68.43;99735.08;113275;1196;22413;-59
2021/09/24 04:41:46;;;;;;;13.30;1.30;;;;;;;12.52;68.40;99731.15;113205;1196;22419;-61
2021/09/24 04:44:17;;;;;;;11.20;1.20;;;;;;;12.52;68.52;99731.67;113327;1190;22436;-59
2021/09/24 04:46:48;;;;;;;10.60;1.00;;;;;;;12.50;68.48;99739.70;113292;1190;22526;-60
2021/09/24 04:49:19;;;;;;;15.10;1.20;;;;;;;12.48;68.64;99741.17;113356;1196;25064;-60
2021/09/24 04:51:50;;;;;;;14.70;1.10;;;;;;;12.45;68.51;99739.73;113258;1190;25099;-61
2021/09/24 04:54:21;;;;;;;15.00;1.30;;;;;;;12.44;68.54;99743.04;113258;1196;22734;-60
2021/09/24 04:56:52;;;;;;;13.80;0.90;;;;;;;12.42;68.73;99745.52;113295;1196;22433;-59
2021/09/24 04:59:23;;;;;;;14.30;1.30;;;;;;;12.41;68.87;99745.13;113256;1196;22424;-61
2021/09/24 05:01:54;;;;;;;17.80;1.40;;;;;;;12.40;68.99;99743.83;113142;1196;25025;-58
2021/09/24 05:04:25;;;;;;;11.40;1.10;;;;;;;12.39;68.90;99745.27;113290;1190;23103;-58
2021/09/24 05:06:57;;;;;;;16.30;1.30;;;;;;;12.39;68.86;99746.59;113733;1196;22447;-59
2021/09/24 05:09:31;;;;;;;12.30;1.00;;;;;;;12.40;68.76;99753.34;114379;1196;22409;-59
2021/09/24 05:12:02;;;;;;;15.90;1.10;;;;;;;12.42;68.62;99761.15;113323;1196;22461;-57
2021/09/24 05:14:33;;;;;;;11.00;0.80;;;;;;;12.43;68.73;99765.27;113359;1196;25104;-56
2021/09/24 05:17:05;;;;;;;13.50;1.00;;;;;;;12.45;68.49;99764.88;113162;1196;24087;-56
2021/09/24 05:19:36;;;;;;;17.40;1.00;;;;;;;12.47;68.57;99769.88;113208;1196;22430;-58
2021/09/24 05:22:07;;;;;;;9.80;0.80;;;;;;;12.48;68.37;99767.63;113253;1190;23209;-57
2021/09/24 05:24:38;;;;;;;13.20;1.20;;;;;;;12.49;68.21;99766.02;113294;1196;22484;-57
2021/09/24 05:27:12;;;;;;;12.00;1.00;;;;;;;12.50;68.44;99765.35;113452;1196;23113;-58
2021/09/24 05:29:43;;;;;;;10.70;0.90;;;;;;;12.50;68.39;99768.72;113478;1196;25039;-59
2021/09/24 05:32:14;;;;;;;16.90;1.60;;;;;;;12.51;68.10;99767.24;113264;1196;22468;-59
2021/09/24 05:34:46;;;;;;;18.00;1.40;;;;;;;12.52;68.30;99774.95;113465;1196;22553;-57
2021/09/24 05:37:19;;;;;;;10.10;1.70;;;;;;;12.52;67.72;99780.84;113610;1190;22461;-58
2021/09/24 05:39:50;;;;;;;15.30;1.20;;;;;;;12.54;67.84;99782.73;113592;1196;22527;-59
2021/09/24 05:42:21;;;;;;;14.10;1.10;;;;;;;12.54;67.63;99790.66;113163;1196;22626;-59
2021/09/24 05:44:52;;;;;;;18.00;1.30;;;;;;;12.55;67.86;99792.61;113355;1190;23559;-60
2021/09/24 05:47:24;;;;;;;14.80;1.20;;;;;;;12.56;67.74;99793.18;113414;1195;22791;-58
2021/09/24 05:49:55;;;;;;;16.10;2.10;;;;;;;12.57;67.68;99795.79;113343;1196;22432;-59
2021/09/24 05:52:26;;;;;;;11.30;1.10;;;;;;;12.57;67.49;99789.25;113495;1196;22540;-58
2021/09/24 05:54:58;;;;;;;17.70;2.00;;;;;;;12.59;67.44;99789.02;113343;1196;22436;-60
2021/09/24 05:57:29;;;;;;;15.90;1.50;;;;;;;12.61;67.37;99794.73;113315;1190;22430;-59
2021/09/24 06:00:00;;;;;;;12.90;1.10;;;;;;;12.61;67.21;99796.77;113506;1196;22436;-60
2021/09/24 06:02:31;;;;;;;11.90;1.30;;;;;;;12.63;67.18;99801.29;113427;1196;24078;-57
2021/09/24 06:05:03;;;;;;;13.20;1.00;;;;;;;12.64;66.88;99809.45;113485;1196;22781;-61
2021/09/24 06:07:34;;;;;;;14.20;1.10;;;;;;;12.66;67.26;99815.36;115254;1196;22463;-57
2021/09/24 06:10:07;;;;;;;15.90;1.50;;;;;;;12.67;67.05;99817.59;113672;1196;22417;-59
2021/09/24 06:12:38;;;;;;;11.90;1.50;;;;;;;12.68;66.99;99816.64;114036;1196;22475;-59
2021/09/24 06:15:11;;;;;;;12.20;1.10;;;;;;;12.70;67.10;99816.45;114248;1196;24095;-58
2021/09/24 06:17:46;;;;;;;14.50;1.50;;;;;;;12.70;67.29;99831.78;113929;1196;22434;-59
2021/09/24 06:20:20;;;;;;;11.60;1.90;;;;;;;12.71;67.31;99831.46;113699;1196;22416;-59
2021/09/24 06:22:51;;;;;;;15.20;1.80;;;;;;;12.71;67.29;99830.20;113606;1196;22446;-60
2021/09/24 06:25:24;;;;;;;9.20;1.20;;;;;;;12.71;67.35;99833.25;113741;1196;25381;-56
2021/09/24 06:27:55;;;;;;;22.00;1.60;;;;;;;12.71;67.10;99831.20;113810;1196;22433;-60
2021/09/24 06:30:27;;;;;;;11.30;1.10;;;;;;;12.72;67.22;99837.17;113633;1190;22480;-58
2021/09/24 06:32:58;;;;;;;13.60;1.60;;;;;;;12.72;67.29;99837.08;113689;1196;22429;-58
2021/09/24 06:35:28;;;;;;;12.40;1.10;;;;;;;12.72;67.46;99830.11;113575;1196;22440;-59
2021/09/24 06:38:00;;;;;;;11.10;1.40;;;;;;;12.73;67.45;99836.32;113417;1190;22457;-58
2021/09/24 06:40:35;;;;;;;17.60;1.50;;;;;;;12.73;67.59;99838.30;113425;1196;22676;-60
2021/09/24 06:43:06;;;;;;;18.40;1.30;;;;;;;12.72;67.50;99836.58;113831;1196;23774;-57
2021/09/24 06:45:37;;;;;;;16.10;1.50;;;;;;;12.73;67.73;99840.29;113502;1196;22446;-58
2021/09/24 06:48:12;;;;;;;22.00;1.90;;;;;;;12.73;67.75;99840.75;113414;1196;22422;-58
2021/09/24 06:50:44;;;;;;;13.80;1.10;;;;;;;12.74;67.79;99846.56;113583;1196;22416;-59
2021/09/24 06:53:15;;;;;;;19.70;1.80;;;;;;;12.75;68.07;99842.94;113773;1196;23981;-58
2021/09/24 06:55:47;;;;;;;13.20;1.40;;;;;;;12.76;68.15;99855.06;113763;1196;22426;-58
2021/09/24 06:58:18;;;;;;;15.50;1.70;;;;;;;12.76;68.32;99852.07;113520;1190;22416;-59
2021/09/24 07:00:49;;;;;;;19.30;1.70;;;;;;;12.78;68.34;99857.58;113435;1196;24193;-60
2021/09/24 07:03:21;;;;;;;12.50;1.50;;;;;;;12.80;68.51;99869.60;113513;1196;25301;-58
2021/09/24 07:05:53;;;;;;;14.90;1.20;;;;;;;12.81;68.47;99862.97;113620;1196;22430;-59
2021/09/24 07:08:24;;;;;;;13.50;1.20;;;;;;;12.83;68.45;99871.30;113549;1196;22824;-58
2021/09/24 07:10:56;;;;;;;14.10;1.70;;;;;;;12.86;68.45;99875.22;113526;1196;22454;-58
2021/09/24 07:13:37;;;;;;;18.70;1.70;;;;;;;12.87;68.41;99878.03;113369;1196;22419;-58
2021/09/24 07:16:09;;;;;;;16.90;1.70;;;;;;;12.89;68.56;99877.53;113750;1196;22472;-59
2021/09/24 07:18:42;;;;;;;16.40;1.40;;;;;;;12.91;68.57;99875.14;113491;1181;23477;-60
2021/09/24 07:21:14;;;;;;;18.70;1.10;;;;;;;12.93;68.44;99883.15;113701;1196;22430;-59
2021/09/24 07:23:47;;;;;;;22.60;1.90;;;;;;;12.94;67.88;99881.37;113650;1196;24045;-57
2021/09/24 07:26:18;;;;;;;16.90;2.10;;;;;;;12.94;68.39;99881.17;113854;1196;25104;-58
2021/09/24 07:28:49;;;;;;;14.80;1.40;;;;;;;12.96;68.59;99885.50;113547;1196;25421;-59
2021/09/24 07:31:21;;;;;;;14.40;1.70;;;;;;;12.98;68.53;99889.45;113442;1196;24161;-59
2021/09/24 07:33:53;;;;;;;17.90;1.50;;;;;;;13.00;68.32;99892.50;113673;1196;22446;-59
2021/09/24 07:36:24;;;;;;;12.80;1.50;;;;;;;13.03;68.11;99892.83;113598;1196;25019;-60
2021/09/24 07:38:57;;;;;;;20.20;1.70;;;;;;;13.04;68.01;99894.86;113650;1196;22632;-59
2021/09/24 07:41:29;;;;;;;12.30;1.40;;;;;;;13.07;68.06;99892.29;113281;1190;22436;-60
2021/09/24 07:44:03;;;;;;;13.40;2.00;;;;;;;13.09;68.36;99893.98;113429;1196;25124;-60
2021/09/24 07:46:35;;;;;;;14.40;1.20;;;;;;;13.11;68.22;99896.14;113686;1196;22424;-56
2021/09/24 07:49:07;;;;;;;12.70;1.20;;;;;;;13.13;68.42;99893.54;113713;1196;23244;-58
2021/09/24 07:51:38;;;;;;;14.80;1.60;;;;;;;13.15;68.38;99893.80;113691;1191;25101;-59
2021/09/24 07:54:11;;;;;;;13.30;1.50;;;;;;;13.18;68.29;99899.61;113395;1196;22456;-60
2021/09/24 07:56:42;;;;;;;14.30;1.30;;;;;;;13.20;68.16;99899.98;113725;1194;22427;-57
2021/09/24 07:59:14;;;;;;;19.50;1.30;;;;;;;13.21;67.97;99899.84;113816;1189;25453;-58
2021/09/24 08:01:47;;;;;;;11.00;1.40;;;;;;;13.23;68.12;99902.44;113789;1190;22432;-59
2021/09/24 08:04:18;;;;;;;15.00;1.50;;;;;;;13.24;68.04;99901.42;113665;1196;25689;-57
2021/09/24 08:06:50;;;;;;;11.00;1.20;;;;;;;13.23;67.94;99904.67;113559;1196;22523;-61
2021/09/24 08:09:22;;;;;;;12.10;1.40;;;;;;;13.22;67.77;99899.78;113970;1190;22426;-59
2021/09/24 08:11:52;;;;;;;14.10;1.40;;;;;;;13.24;68.29;99905.95;113858;1196;22546;-59
2021/09/24 08:14:25;;;;;;;11.10;1.00;;;;;;;13.28;68.32;99916.79;113794;1195;25057;-59
2021/09/24 08:16:56;;;;;;;18.10;1.60;;;;;;;13.30;68.45;99917.48;113331;1196;25099;-57
2021/09/24 08:19:27;;;;;;;14.60;1.60;;;;;;;13.33;68.21;99915.20;113489;1195;22440;-58
2021/09/24 08:22:02;;;;;;;14.70;1.90;;;;;;;13.35;67.95;99920.91;113684;1196;25146;-59
2021/09/24 08:24:33;;;;;;;11.20;1.00;;;;;;;13.36;67.99;99923.48;113684;1196;22416;-59
2021/09/24 08:27:04;;;;;;;11.10;1.20;;;;;;;13.38;67.86;99924.95;113773;1196;24919;-59
2021/09/24 08:29:35;;;;;;;11.30;1.10;;;;;;;13.39;67.98;99924.29;113801;1196;25020;-58
2021/09/24 08:32:08;;;;;;;14.10;1.50;;;;;;;13.41;68.15;99929.60;113585;1196;22429;-59
2021/09/24 08:34:39;;;;;;;17.50;1.20;;;;;;;13.43;68.15;99929.55;113789;1189;22419;-58
2021/09/24 08:37:10;;;;;;;11.20;1.50;;;;;;;13.44;68.24;99930.79;113554;1196;26261;-59
2021/09/24 08:39:41;;;;;;;14.70;1.60;;;;;;;13.44;68.10;99935.52;113393;1196;22433;-59
2021/09/24 08:42:12;;;;;;;12.80;1.30;;;;;;;13.44;68.08;99931.50;113564;1196;22433;-59
2021/09/24 08:44:44;;;;;;;11.90;1.10;;;;;;;13.45;68.27;99934.24;113760;1196;25159;-58
2021/09/24 08:47:16;;;;;;;21.70;1.90;;;;;;;13.47;68.34;99933.19;113511;1196;22416;-59
2021/09/24 08:49:53;;;;;;;11.90;1.60;;;;;;;13.48;67.93;99937.77;113521;1196;22422;-58
2021/09/24 08:52:24;;;;;;;13.20;1.30;;;;;;;13.48;68.15;99944.45;113671;1190;22430;-57
2021/09/24 08:54:56;;;;;;;13.90;1.40;;;;;;;13.48;68.05;99943.85;113460;1190;22482;-57
2021/09/24 08:57:28;;;;;;;16.30;1.50;;;;;;;13.49;68.37;99947.46;113795;1196;22524;-57
2021/09/24 08:59:59;;;;;;;12.00;1.20;;;;;;;13.51;68.38;99948.14;113620;1196;25136;-58
2021/09/24 09:02:30;;;;;;;10.50;1.00;;;;;;;13.52;67.89;99951.25;113583;1196;22409;-61
2021/09/24 09:05:01;;;;;;;16.70;2.00;;;;;;;13.53;68.08;99956.09;113431;1190;25133;-60
2021/09/24 09:07:34;;;;;;;15.70;1.50;;;;;;;13.54;68.13;99959.46;113863;1190;25103;-61
2021/09/24 09:10:06;;;;;;;14.00;2.00;;;;;;;13.54;68.06;99965.18;113455;1196;22540;-58
2021/09/24 09:12:38;;;;;;;14.70;1.50;;;;;;;13.56;68.00;99970.39;113828;1196;22450;-60
2021/09/24 09:15:13;;;;;;;16.10;1.30;;;;;;;13.58;67.78;99967.98;113565;1189;25016;-59
2021/09/24 09:17:48;;;;;;;11.70;1.60;;;;;;;13.61;67.67;99969.92;113602;1196;22420;-59
2021/09/24 09:20:22;;;;;;;19.20;1.50;;;;;;;13.65;67.82;99976.27;113724;1196;22525;-58
2021/09/24 09:23:06;;;;;;;14.20;1.10;;;;;;;13.69;67.93;99978.16;113847;1196;22433;-60
2021/09/24 09:25:41;;;;;;;16.50;1.20;;;;;;;13.74;67.72;99983.27;113490;1196;22636;-57
2021/09/24 09:28:16;;;;;;;14.50;1.50;;;;;;;13.77;67.63;99974.40;113414;1196;22546;-60
2021/09/24 09:30:49;;;;;;;11.70;1.20;;;;;;;13.81;67.41;99975.11;113319;1196;22443;-59
2021/09/24 09:33:24;;;;;;;11.90;1.40;;;;;;;13.83;67.36;99980.84;113518;1196;25327;-60
2021/09/24 09:35:58;;;;;;;16.10;1.60;;;;;;;13.83;67.07;99983.09;113374;1195;25124;-59
2021/09/24 09:38:33;;;;;;;13.20;1.70;;;;;;;13.83;67.28;99981.71;113595;1196;22442;-59
2021/09/24 09:41:06;;;;;;;18.70;1.70;;;;;;;13.85;66.95;99985.89;113226;1196;22437;-59
2021/09/24 09:43:39;;;;;;;12.00;1.20;;;;;;;13.86;66.92;99984.02;113405;1196;24087;-60
2021/09/24 09:46:13;;;;;;;17.30;2.20;;;;;;;13.89;67.10;99984.88;113703;1174;22782;-58
2021/09/24 09:49:08;;;;;;;17.50;1.90;;;;;;;13.90;67.20;99989.64;113210;1196;25152;-59
2021/09/24 09:51:42;;;;;;;19.20;2.30;;;;;;;13.92;66.89;99991.72;113255;1196;22433;-59
2021/09/24 09:54:26;;;;;;;25.90;2.30;;;;;;;13.94;66.68;99992.54;113505;1196;22443;-59
2021/09/24 09:57:20;;;;;;;17.40;1.60;;;;;;;13.95;66.76;99993.45;113155;1196;23096;-59
2021/09/24 09:59:54;;;;;;;17.60;1.60;;;;;;;13.99;66.73;100000.86;113548;1196;24106;-59
2021/09/24 10:02:31;;;;;;;15.40;1.70;;;;;;;14.05;66.32;100002.30;113481;1196;25006;-59
2021/09/24 10:05:03;;;;;;;15.20;1.70;;;;;;;14.08;66.18;99999.86;113409;1190;24057;-62
2021/09/24 10:07:40;;;;;;;13.70;1.90;;;;;;;14.10;66.14;99998.58;113677;1196;22480;-59
2021/09/24 10:10:15;;;;;;;16.90;1.70;;;;;;;14.12;66.21;100002.66;113676;1196;22412;-59
2021/09/24 10:12:47;;;;;;;11.60;1.00;;;;;;;14.17;66.43;100006.20;113622;1190;25117;-59
2021/09/24 10:15:18;;;;;;;9.60;1.40;;;;;;;14.24;66.70;99997.42;113420;1196;22983;-60
2021/09/24 10:17:50;;;;;;;13.40;1.60;;;;;;;14.33;66.51;100000.45;113479;1196;25073;-59
2021/09/24 10:20:21;;;;;;;15.10;1.40;;;;;;;14.43;66.11;100000.52;113326;1189;25114;-58
2021/09/24 10:22:53;;;;;;;21.20;1.60;;;;;;;14.54;65.82;100003.67;113465;1196;25117;-58
2021/09/24 10:25:25;;;;;;;12.40;1.30;;;;;;;14.64;65.66;100002.84;113570;1196;22419;-59
2021/09/24 10:27:58;;;;;;;16.00;1.20;;;;;;;14.67;65.13;100004.46;113715;1190;24010;-60
2021/09/24 10:30:32;;;;;;;14.70;1.50;;;;;;;14.66;65.48;100007.28;113503;1196;22470;-60
2021/09/24 10:33:06;;;;;;;15.20;1.20;;;;;;;14.67;65.09;100006.26;113345;1196;22460;-61
2021/09/24 10:35:51;;;;;;;17.50;1.90;;;;;;;14.66;65.01;100008.35;113396;1196;22508;-58
2021/09/24 10:38:25;;;;;;;11.40;1.10;;;;;;;14.64;64.80;100010.10;113232;1196;22436;-58
2021/09/24 10:41:04;;;;;;;11.80;1.10;;;;;;;14.63;65.19;100011.63;113387;1196;24189;-60
2021/09/24 10:43:47;;;;;;;19.10;1.80;;;;;;;14.67;65.26;100003.19;113340;1189;23801;-60
2021/09/24 10:46:37;;;;;;;17.00;1.40;;;;;;;14.71;64.62;100008.91;113591;1196;22432;-59
2021/09/24 10:49:32;;;;;;;15.30;1.50;;;;;;;14.74;65.04;100006.52;113420;1196;22914;-60
2021/09/24 10:52:15;;;;;;;18.20;1.60;;;;;;;14.80;64.95;100005.48;113288;1196;23069;-58
2021/09/24 10:55:01;;;;;;;15.10;2.40;;;;;;;14.87;65.01;100001.67;113205;1196;22423;-61
2021/09/24 10:58:00;;;;;;;14.10;1.40;;;;;;;14.94;64.70;99996.39;113347;1196;22474;-59
2021/09/24 11:00:34;;;;;;;14.30;1.20;;;;;;;15.01;64.50;100000.15;113607;1196;22451;-60
2021/09/24 11:03:14;;;;;;;16.60;1.20;;;;;;;15.04;64.55;99997.43;113628;1196;24153;-60
2021/09/24 11:06:02;;;;;;;21.30;1.20;;;;;;;15.08;64.08;99989.50;113585;1196;22447;-59
2021/09/24 11:08:44;;;;;;;12.50;1.40;;;;;;;15.12;63.01;99990.06;113433;1196;22756;-59
2021/09/24 11:11:22;;;;;;;13.10;1.30;;;;;;;15.08;61.96;99992.98;113261;1196;22821;-59
2021/09/24 11:14:21;;;;;;;14.00;1.40;;;;;;;15.06;62.02;99994.52;113396;1190;25450;-59
2021/09/24 11:16:55;;;;;;;17.30;1.30;;;;;;;15.03;62.64;99984.20;113477;1190;25019;-59
2021/09/24 11:19:43;;;;;;;17.00;1.60;;;;;;;15.05;62.83;99989.27;113481;1190;23967;-62
2021/09/24 11:22:42;;;;;;;14.80;1.20;;;;;;;15.06;62.30;99991.95;113524;1196;24077;-60
2021/09/24 11:25:17;;;;;;;15.10;1.10;;;;;;;15.10;61.95;99993.02;113308;1196;24331;-59
2021/09/24 11:27:50;;;;;;;13.00;1.10;;;;;;;15.18;60.47;99994.73;113226;1196;26309;-60
2021/09/24 11:30:25;;;;;;;13.40;1.50;;;;;;;15.19;60.65;99991.25;113200;1196;24279;-57
2021/09/24 11:32:59;;;;;;;16.90;1.60;;;;;;;15.21;60.71;99995.02;113237;1196;22671;-60
2021/09/24 11:35:39;;;;;;;12.00;1.10;;;;;;;15.23;61.02;99984.84;113503;1190;22418;-60
2021/09/24 11:38:22;;;;;;;22.50;1.90;;;;;;;15.27;60.81;99984.32;113479;1195;23764;-58
2021/09/24 11:40:57;;;;;;;17.20;1.30;;;;;;;15.30;60.53;99988.66;113309;1196;25127;-58
2021/09/24 11:43:32;;;;;;;17.40;1.60;;;;;;;15.31;60.12;99983.78;113465;1181;24139;-60
2021/09/24 11:46:10;;;;;;;13.50;1.20;;;;;;;15.32;60.55;99977.86;113583;1195;22968;-59